createdAt,value
2024-02-01T07:57:23.486Z,6.20
2024-02-01T07:59:52.484Z,6.20
2024-02-01T08:02:36.040Z,6.00
2024-02-01T08:05:21.646Z,6.10
2024-02-01T08:07:51.329Z,6.10
2024-02-01T08:10:21.160Z,6.00
2024-02-01T08:12:52.322Z,6.00
2024-02-01T08:15:21.735Z,5.90
2024-02-01T08:17:52.191Z,5.90
2024-02-01T08:20:22.658Z,6.00
2024-02-01T08:22:52.699Z,6.00
2024-02-01T08:25:21.555Z,5.90
2024-02-01T08:27:55.142Z,5.90
2024-02-01T08:30:29.057Z,6.00
2024-02-01T08:33:05.030Z,5.90
2024-02-01T08:35:35.790Z,6.00
2024-02-01T08:38:04.929Z,6.00
2024-02-01T08:40:34.271Z,6.10
2024-02-01T08:43:05.122Z,6.10
2024-02-01T08:45:39.271Z,6.10
2024-02-01T08:48:09.866Z,6.00
2024-02-01T08:50:44.669Z,6.10
2024-02-01T08:53:14.544Z,6.20
2024-02-01T08:55:44.501Z,6.20
2024-02-01T08:58:15.440Z,6.20
2024-02-01T09:00:45.008Z,6.20
2024-02-01T09:03:17.425Z,6.20
2024-02-01T09:05:47.867Z,6.40
2024-02-01T09:08:17.605Z,6.40
2024-02-01T09:10:58.803Z,6.30
2024-02-01T09:13:31.512Z,6.30
2024-02-01T09:16:00.429Z,6.50
2024-02-01T09:18:29.375Z,6.50
2024-02-01T09:20:58.063Z,6.70
2024-02-01T09:23:26.921Z,6.80
2024-02-01T09:25:55.615Z,6.80
2024-02-01T09:28:24.416Z,6.80
2024-02-01T09:30:56.635Z,6.80
2024-02-01T09:33:28.828Z,6.90
2024-02-01T09:35:58.719Z,6.90
2024-02-01T09:38:27.712Z,6.90
2024-02-01T09:40:57.208Z,7.00
2024-02-01T09:43:28.136Z,7.10
2024-02-01T09:46:03.864Z,7.10
2024-02-01T09:48:34.710Z,7.20
2024-02-01T09:51:03.435Z,7.30
2024-02-01T09:53:32.042Z,7.30
2024-02-01T09:56:01.754Z,7.30
2024-02-01T09:58:30.725Z,7.30
2024-02-01T10:01:01.056Z,7.50
2024-02-01T10:03:30.295Z,7.40
2024-02-01T10:06:06.792Z,7.40
2024-02-01T10:08:37.378Z,7.50
2024-02-01T10:11:06.841Z,7.50
2024-02-01T10:13:37.767Z,7.60
2024-02-01T10:16:14.998Z,7.70
2024-02-01T10:18:45.193Z,7.70
2024-02-01T10:21:31.954Z,7.90
2024-02-01T10:24:07.388Z,7.90
2024-02-01T10:26:36.656Z,8.00
2024-02-01T10:29:06.308Z,8.00
2024-02-01T10:31:42.978Z,8.00
2024-02-01T10:34:15.348Z,8.10
2024-02-01T10:36:45.261Z,8.10
2024-02-01T10:39:22.444Z,8.10
2024-02-01T10:41:56.622Z,8.20
2024-02-01T10:44:35.687Z,8.40
2024-02-01T10:47:14.366Z,8.30
2024-02-01T10:49:52.587Z,8.40
2024-02-01T10:52:23.174Z,8.50
2024-02-01T10:54:52.766Z,8.70
2024-02-01T10:57:23.162Z,8.60
2024-02-01T10:59:53.772Z,8.80
2024-02-01T11:02:24.650Z,8.80
2024-02-01T11:04:56.301Z,8.90
2024-02-01T11:07:27.121Z,9.00
2024-02-01T11:09:56.449Z,8.90
2024-02-01T11:12:27.493Z,8.90
2024-02-01T11:14:56.702Z,9.10
2024-02-01T11:17:28.034Z,9.20
2024-02-01T11:19:58.199Z,9.30
2024-02-01T11:22:31.293Z,9.50
2024-02-01T11:25:09.848Z,9.40
2024-02-01T11:27:39.292Z,9.40
2024-02-01T11:30:23.094Z,9.50
2024-02-01T11:32:54.292Z,9.80
2024-02-01T11:35:24.628Z,11.20
2024-02-01T11:38:03.133Z,11.60
2024-02-01T11:40:32.213Z,10.50
2024-02-01T11:43:01.970Z,10.40
2024-02-01T11:45:33.136Z,9.50
2024-02-01T11:48:04.822Z,9.60
2024-02-01T11:50:33.859Z,10.00
2024-02-01T11:53:07.253Z,10.10
2024-02-01T11:55:36.376Z,10.10
2024-02-01T11:58:13.469Z,10.00
2024-02-01T12:00:56.662Z,9.90
2024-02-01T12:03:39.166Z,9.80
2024-02-01T12:06:08.237Z,9.20
2024-02-01T12:08:37.742Z,9.20
2024-02-01T12:11:08.419Z,9.10
2024-02-01T12:13:37.965Z,9.20
2024-02-01T12:16:07.580Z,9.20
2024-02-01T12:18:38.140Z,8.90
2024-02-01T12:21:13.915Z,9.40
2024-02-01T12:23:43.011Z,10.70
2024-02-01T12:26:11.720Z,10.70
2024-02-01T12:28:40.583Z,10.60
2024-02-01T12:31:11.656Z,11.80
2024-02-01T12:33:42.172Z,13.10
2024-02-01T12:36:11.316Z,14.40
2024-02-01T12:38:45.656Z,15.20
2024-02-01T12:41:16.186Z,15.80
2024-02-01T12:43:46.437Z,15.80
2024-02-01T12:46:15.636Z,14.40
2024-02-01T12:48:46.063Z,13.40
2024-02-01T12:51:14.987Z,12.60
2024-02-01T12:53:44.004Z,12.00
2024-02-01T12:56:14.157Z,11.90
2024-02-01T12:58:43.593Z,11.40
2024-02-01T13:01:13.989Z,10.90
2024-02-01T13:03:42.780Z,10.60
2024-02-01T13:06:15.372Z,10.70
2024-02-01T13:08:43.871Z,10.60
2024-02-01T13:11:12.587Z,10.50
2024-02-01T13:13:41.101Z,10.60
2024-02-01T13:16:09.833Z,10.70
2024-02-01T13:18:38.764Z,11.10
2024-02-01T13:21:07.689Z,11.20
2024-02-01T13:23:38.105Z,11.30
2024-02-01T13:26:08.928Z,12.00
2024-02-01T13:28:37.835Z,12.20
2024-02-01T13:31:09.900Z,12.10
2024-02-01T13:33:38.791Z,12.40
2024-02-01T13:36:10.641Z,13.40
2024-02-01T13:38:41.406Z,14.20
2024-02-01T13:41:10.357Z,14.00
2024-02-01T13:43:39.100Z,14.10
2024-02-01T13:46:07.922Z,14.10
2024-02-01T13:48:36.872Z,14.20
2024-02-01T13:51:10.407Z,14.80
2024-02-01T13:53:40.765Z,14.40
2024-02-01T13:56:10.974Z,15.30
2024-02-01T13:58:39.746Z,14.70
2024-02-01T14:01:09.305Z,15.30
2024-02-01T14:03:38.310Z,15.70
2024-02-01T14:06:08.172Z,15.60
2024-02-01T14:08:37.148Z,15.30
2024-02-01T14:11:07.674Z,14.10
2024-02-01T14:13:36.442Z,14.20
2024-02-01T14:16:05.321Z,15.00
2024-02-01T14:18:36.337Z,15.90
2024-02-01T14:21:08.236Z,15.80
2024-02-01T14:23:37.751Z,15.10
2024-02-01T14:26:09.795Z,14.00
2024-02-01T14:28:38.605Z,12.20
2024-02-01T14:31:09.824Z,11.20
2024-02-01T14:33:38.853Z,11.10
2024-02-01T14:36:09.860Z,11.20
2024-02-01T14:38:39.240Z,12.60
2024-02-01T14:41:11.517Z,14.20
2024-02-01T14:43:40.072Z,14.50
2024-02-01T14:46:09.244Z,13.90
2024-02-01T14:48:37.887Z,14.00
2024-02-01T14:51:07.055Z,13.50
2024-02-01T14:53:35.542Z,13.00
2024-02-01T14:56:03.970Z,12.50
2024-02-01T14:58:34.112Z,12.90
2024-02-01T15:01:02.770Z,13.50
2024-02-01T15:03:31.381Z,13.00
2024-02-01T15:06:00.172Z,12.90
2024-02-01T15:08:29.679Z,12.20
2024-02-01T15:10:58.316Z,11.60
2024-02-01T15:13:26.792Z,10.90
2024-02-01T15:16:00.219Z,10.60
2024-02-01T15:18:30.697Z,10.40
2024-02-01T15:20:59.373Z,10.30
2024-02-01T15:23:28.105Z,10.20
2024-02-01T15:25:56.550Z,10.10
2024-02-01T15:28:25.334Z,10.10
2024-02-01T15:30:53.960Z,10.00
2024-02-01T15:33:25.157Z,10.00
2024-02-01T15:35:54.017Z,9.90
2024-02-01T15:38:23.504Z,9.90
2024-02-01T15:40:52.446Z,9.80
2024-02-01T15:43:21.045Z,9.50
2024-02-01T15:45:52.132Z,9.40
2024-02-01T15:48:21.176Z,9.30
2024-02-01T15:50:51.552Z,9.20
2024-02-01T15:53:20.868Z,9.00
2024-02-01T15:55:49.438Z,8.90
2024-02-01T15:58:18.163Z,8.90
2024-02-01T16:00:46.865Z,8.80
2024-02-01T16:03:15.774Z,8.60
2024-02-01T16:06:19.644Z,8.60
2024-02-01T16:08:51.666Z,8.50
2024-02-01T16:11:22.621Z,8.40
2024-02-01T16:13:52.931Z,8.40
2024-02-01T16:16:29.642Z,8.20
2024-02-01T16:18:59.820Z,8.20
2024-02-01T16:21:33.824Z,8.10
2024-02-01T16:24:05.872Z,8.00
2024-02-01T16:26:34.808Z,7.90
2024-02-01T16:29:04.192Z,7.80
2024-02-01T16:31:32.912Z,7.70
2024-02-01T16:34:13.853Z,7.70
2024-02-01T16:36:53.996Z,7.60
2024-02-01T16:39:24.886Z,7.60
2024-02-01T16:41:58.853Z,7.50
2024-02-01T16:44:44.175Z,7.40
2024-02-01T16:47:18.106Z,7.30
2024-02-01T16:49:46.855Z,7.20
2024-02-01T16:52:44.756Z,7.10
2024-02-01T16:55:37.945Z,7.10
2024-02-01T16:58:08.236Z,6.70
2024-02-01T17:00:40.574Z,6.60
2024-02-01T17:03:20.616Z,6.40
2024-02-01T17:05:52.148Z,6.20
2024-02-01T17:08:39.753Z,6.00
2024-02-01T17:11:09.273Z,5.90
2024-02-01T17:13:38.851Z,5.80
2024-02-01T17:16:11.936Z,5.80
2024-02-01T17:18:40.893Z,5.80
2024-02-01T17:21:09.876Z,5.60
2024-02-01T17:23:40.239Z,5.50
2024-02-01T17:26:21.784Z,5.60
2024-02-01T17:28:50.500Z,5.60
2024-02-01T17:31:35.284Z,5.50
2024-02-01T17:34:06.961Z,5.60
2024-02-01T17:36:45.326Z,5.40
2024-02-01T17:39:34.732Z,5.50
2024-02-01T17:42:09.333Z,5.50
2024-02-01T17:44:48.263Z,5.40
2024-02-01T17:47:18.928Z,5.30
2024-02-01T17:49:52.811Z,5.40
2024-02-01T17:52:47.521Z,5.30
2024-02-01T17:55:24.333Z,5.10
2024-02-01T17:57:56.719Z,5.10
2024-02-01T18:00:28.278Z,5.00
2024-02-01T18:03:00.871Z,4.90
2024-02-01T18:05:35.279Z,4.80
2024-02-01T18:08:07.384Z,4.90
2024-02-01T18:10:40.018Z,4.90
2024-02-01T18:13:10.288Z,5.00
2024-02-01T18:16:02.405Z,4.90
2024-02-01T18:18:34.321Z,4.90
2024-02-01T18:21:05.725Z,4.80
2024-02-01T18:23:40.816Z,4.90
2024-02-01T18:26:12.883Z,4.90
2024-02-01T18:28:43.371Z,4.90
2024-02-01T18:31:16.586Z,4.70
2024-02-01T18:33:47.800Z,4.40
2024-02-01T18:36:22.850Z,4.30
2024-02-01T18:39:06.224Z,4.10
2024-02-01T18:41:39.321Z,4.00
2024-02-01T18:44:25.113Z,3.90
2024-02-01T18:46:58.550Z,3.80
2024-02-01T18:49:31.178Z,3.90
2024-02-01T18:52:05.781Z,3.80
2024-02-01T18:54:36.661Z,3.70
2024-02-01T18:57:09.123Z,3.70
2024-02-01T18:59:58.328Z,3.80
2024-02-01T19:02:55.857Z,3.80
2024-02-01T19:05:27.026Z,3.80
2024-02-01T19:07:59.717Z,4.00
2024-02-01T19:10:44.970Z,3.90
2024-02-01T19:13:48.248Z,3.80
2024-02-01T19:16:19.352Z,3.60
2024-02-01T19:18:48.563Z,3.60
2024-02-01T19:21:17.896Z,3.50
2024-02-01T19:23:46.868Z,3.50
2024-02-01T19:26:15.838Z,3.50
2024-02-01T19:29:17.211Z,3.60
2024-02-01T19:31:50.815Z,3.60
2024-02-01T19:34:28.076Z,3.40
2024-02-01T19:36:57.184Z,3.50
2024-02-01T19:39:29.759Z,3.70
2024-02-01T19:41:58.969Z,3.70
2024-02-01T19:44:31.736Z,3.80
2024-02-01T19:47:00.548Z,3.80
2024-02-01T19:49:29.417Z,3.90
2024-02-01T19:51:58.156Z,4.00
2024-02-01T19:54:28.841Z,4.00
2024-02-01T19:56:57.817Z,4.00
2024-02-01T19:59:34.393Z,4.00
2024-02-01T20:02:04.391Z,4.00
2024-02-01T20:04:33.208Z,4.00
2024-02-01T20:07:03.957Z,3.90
2024-02-01T20:09:33.096Z,4.00
2024-02-01T20:12:02.112Z,4.00
2024-02-01T20:14:30.910Z,3.90
2024-02-01T20:17:01.101Z,3.70
2024-02-01T20:19:30.040Z,3.40
2024-02-01T20:22:06.235Z,3.00
2024-02-01T20:24:40.764Z,2.90
2024-02-01T20:27:17.178Z,2.90
2024-02-01T20:29:47.211Z,3.00
2024-02-01T20:32:22.651Z,3.00
2024-02-01T20:34:51.841Z,3.00
2024-02-01T20:37:20.783Z,2.90
2024-02-01T20:39:49.697Z,2.90
2024-02-01T20:42:23.422Z,2.80
2024-02-01T20:44:53.457Z,2.70
2024-02-01T20:47:25.856Z,2.70
2024-02-01T20:49:55.069Z,2.50
2024-02-01T20:52:28.221Z,2.30
2024-02-01T20:55:28.004Z,2.20
2024-02-01T20:58:07.195Z,2.10
2024-02-01T21:00:36.299Z,2.10
2024-02-01T21:03:08.970Z,2.00
2024-02-01T21:05:45.702Z,1.90
2024-02-01T21:08:25.914Z,1.80
2024-02-01T21:10:55.195Z,1.90
2024-02-01T21:13:24.481Z,2.10
2024-02-01T21:15:55.969Z,2.10
2024-02-01T21:18:27.479Z,2.10
2024-02-01T21:21:04.486Z,2.10
2024-02-01T21:23:54.581Z,2.10
2024-02-01T21:26:31.455Z,2.20
2024-02-01T21:29:01.897Z,2.30
2024-02-01T21:32:01.152Z,2.40
2024-02-01T21:34:42.648Z,2.30
2024-02-01T21:37:14.331Z,2.20
2024-02-01T21:39:58.802Z,2.10
2024-02-01T21:43:07.199Z,2.10
2024-02-01T21:45:37.634Z,2.00
2024-02-01T21:48:07.191Z,1.80
2024-02-01T21:50:37.460Z,1.80
2024-02-01T21:53:06.677Z,1.80
2024-02-01T21:55:35.546Z,1.60
2024-02-01T21:58:05.889Z,1.60
2024-02-01T22:00:35.729Z,1.60
2024-02-01T22:03:04.699Z,1.50
2024-02-01T22:05:33.732Z,1.60
2024-02-01T22:08:04.084Z,1.70
2024-02-01T22:10:33.627Z,1.70
2024-02-01T22:13:02.480Z,2.00
2024-02-01T22:15:31.944Z,2.00
2024-02-01T22:18:00.899Z,2.10
2024-02-01T22:20:29.950Z,2.30
2024-02-01T22:22:58.788Z,2.40
2024-02-01T22:25:28.921Z,2.40
2024-02-01T22:27:57.651Z,2.50
2024-02-01T22:30:27.946Z,2.80
2024-02-01T22:32:58.092Z,2.80
2024-02-01T22:35:26.980Z,2.90
2024-02-01T22:37:55.676Z,2.90
2024-02-01T22:40:27.253Z,2.90
2024-02-01T22:42:57.525Z,3.00
2024-02-01T22:45:26.899Z,3.00
2024-02-01T22:47:55.888Z,3.10
2024-02-01T22:50:24.600Z,3.30
2024-02-01T22:52:53.360Z,3.40
2024-02-01T22:55:21.985Z,3.50
2024-02-01T22:57:50.919Z,3.60
2024-02-01T23:00:24.578Z,3.70
2024-02-01T23:02:53.663Z,3.70
2024-02-01T23:05:22.700Z,3.80
2024-02-01T23:07:51.404Z,3.90
2024-02-01T23:10:20.807Z,4.00
2024-02-01T23:12:49.738Z,4.00
2024-02-01T23:15:18.695Z,4.00
2024-02-01T23:17:49.058Z,4.10
2024-02-01T23:20:19.816Z,4.10
2024-02-01T23:22:48.880Z,4.10
2024-02-01T23:25:18.340Z,4.10
2024-02-01T23:27:46.971Z,4.20
2024-02-01T23:30:16.802Z,4.20
2024-02-01T23:32:45.812Z,4.20
2024-02-01T23:35:16.204Z,4.20
2024-02-01T23:37:45.023Z,4.20
2024-02-01T23:40:14.868Z,4.20
2024-02-01T23:42:43.512Z,4.20
2024-02-01T23:45:11.375Z,4.30
2024-02-01T23:47:40.879Z,4.30
2024-02-01T23:50:10.395Z,4.30
2024-02-01T23:52:42.084Z,4.30
2024-02-01T23:55:11.329Z,4.40
2024-02-01T23:57:40.641Z,4.40
